Time;durP1;ratioP1;P1;durP2;ratioP2;P2;SDS_P1;SDS_P2;PMS_P1;PMS_P2;Temp;Humidity;BMP_temperature;BMP_pressure;BME280_temperature;BME280_humidity;BME280_pressure;Samples;Min_cycle;Max_cycle;Signal;HPM_P1;HPM_P2
2024/01/29 00:00:19;;;;;;;;;;;;;;;2.01;88.10;102421.59;4998721;28;19940;-66
2024/01/29 00:02:45;;;;;;;;;;;;;;;2.14;87.43;102418.81;5007981;28;19921;-66
2024/01/29 00:05:10;;;;;;;;;;;;;;;2.18;87.51;102419.81;4990734;28;19932;-66
2024/01/29 00:07:36;;;;;;;;;;;;;;;2.14;87.85;102418.81;5023555;28;19923;-66
2024/01/29 00:10:02;;;;;;;;;;;;;;;2.21;87.11;102414.78;5002582;28;20367;-65
2024/01/29 00:12:27;;;;;;;;;;;;;;;2.20;87.87;102413.03;4999278;28;19925;-71
2024/01/29 00:14:53;;;;;;;;;;;;;;;2.22;87.08;102411.41;5015048;28;20028;-71
2024/01/29 00:17:18;;;;;;;;;;;;;;;2.28;87.53;102403.91;5006198;28;19925;-71
2024/01/29 00:19:43;;;;;;;;;;;;;;;2.26;87.54;102418.50;5010622;28;19921;-70
2024/01/29 00:22:09;;;;;;;;;;;;;;;2.29;87.24;102415.19;5009003;28;19933;-71
2024/01/29 00:24:34;;;;;;;;;;;;;;;2.24;87.72;102405.50;5003774;28;19921;-71
2024/01/29 00:26:59;;;;;;;;;;;;;;;2.23;86.93;102403.72;5003273;28;19925;-71
2024/01/29 00:29:25;;;;;;;;;;;;;;;2.37;87.51;102409.53;4999239;28;19929;-71
2024/01/29 00:31:50;;;;;;;;;;;;;;;2.36;87.79;102410.34;4997681;28;19929;-71
2024/01/29 00:34:15;;;;;;;;;;;;;;;2.45;87.01;102406.44;5004174;28;19947;-71
2024/01/29 00:36:41;;;;;;;;;;;;;;;2.40;87.57;102408.81;5015496;28;19921;-71
2024/01/29 00:39:09;;;;;;;;;;;;;;;2.40;87.63;102404.50;5000318;28;19926;-71
2024/01/29 00:41:34;;;;;;;;;;;;;;;2.34;87.07;102419.75;5019609;28;19917;-71
2024/01/29 00:44:00;;;;;;;;;;;;;;;2.30;87.55;102410.06;5014554;28;19917;-71
2024/01/29 00:46:25;;;;;;;;;;;;;;;2.27;87.91;102404.75;5000295;28;20015;-71
2024/01/29 00:48:50;;;;;;;;;;;;;;;2.23;88.24;102402.84;4997681;28;19932;-66
2024/01/29 00:51:16;;;;;;;;;;;;;;;2.20;88.48;102402.69;5010251;28;19971;-66
2024/01/29 00:53:41;;;;;;;;;;;;;;;2.26;88.67;102400.38;4984851;28;19967;-66
2024/01/29 00:56:07;;;;;;;;;;;;;;;2.28;87.65;102395.28;5002856;28;19921;-65
2024/01/29 00:58:32;;;;;;;;;;;;;;;2.22;87.94;102391.59;5005039;28;20408;-66
2024/01/29 01:00:57;;;;;;;;;;;;;;;2.22;88.65;102399.34;5009687;28;19933;-65
2024/01/29 01:03:22;;;;;;;;;;;;;;;2.19;88.32;102390.56;5018237;28;19922;-66
2024/01/29 01:05:48;;;;;;;;;;;;;;;2.18;88.82;102393.97;5003916;28;20420;-66
2024/01/29 01:08:13;;;;;;;;;;;;;;;2.13;88.89;102403.22;5016241;28;19924;-66
2024/01/29 01:10:39;;;;;;;;;;;;;;;2.16;88.35;102411.13;5008557;28;19929;-65
2024/01/29 01:13:04;;;;;;;;;;;;;;;2.15;88.11;102414.50;5024907;28;19921;-66
2024/01/29 01:15:29;;;;;;;;;;;;;;;2.10;88.44;102423.72;5009176;28;19922;-66
2024/01/29 01:17:56;;;;;;;;;;;;;;;2.08;88.58;102431.41;5006332;28;19991;-66
2024/01/29 01:20:22;;;;;;;;;;;;;;;2.11;88.50;102425.50;4985507;28;19921;-66
2024/01/29 01:22:48;;;;;;;;;;;;;;;2.12;88.62;102432.47;5033318;28;19923;-65
2024/01/29 01:25:13;;;;;;;;;;;;;;;2.16;88.29;102443.03;5026111;28;19921;-66
2024/01/29 01:27:38;;;;;;;;;;;;;;;2.22;88.34;102443.31;5052699;28;20342;-66
2024/01/29 01:30:05;;;;;;;;;;;;;;;2.23;88.77;102434.75;5045304;28;19917;-66
2024/01/29 01:32:32;;;;;;;;;;;;;;;2.23;87.84;102439.06;5027290;28;19952;-66
2024/01/29 01:34:57;;;;;;;;;;;;;;;2.24;88.24;102433.03;5026405;28;19921;-66
2024/01/29 01:37:22;;;;;;;;;;;;;;;2.28;88.04;102431.50;5023576;28;19978;-66
2024/01/29 01:39:52;;;;;;;;;;;;;;;2.32;88.51;102426.53;5050517;28;19946;-66
2024/01/29 01:42:18;;;;;;;;;;;;;;;2.29;88.42;102423.81;5051326;28;19917;-66
2024/01/29 01:44:45;;;;;;;;;;;;;;;2.31;89.12;102422.16;5051763;28;20357;-66
2024/01/29 01:47:10;;;;;;;;;;;;;;;2.27;88.67;102430.63;5038390;28;19921;-66
2024/01/29 01:49:35;;;;;;;;;;;;;;;2.25;88.76;102432.22;5037647;28;19920;-66
2024/01/29 01:52:01;;;;;;;;;;;;;;;2.27;88.36;102430.63;5021436;28;19932;-65
2024/01/29 01:54:26;;;;;;;;;;;;;;;2.21;88.51;102428.63;5020685;28;19920;-66
2024/01/29 01:56:52;;;;;;;;;;;;;;;2.30;88.29;102437.63;5028252;28;20001;-66
2024/01/29 01:59:18;;;;;;;;;;;;;;;2.32;88.81;102439.47;5036037;28;19965;-66
2024/01/29 02:01:45;;;;;;;;;;;;;;;2.36;88.77;102438.81;5026334;28;19960;-66
2024/01/29 02:04:10;;;;;;;;;;;;;;;2.35;88.75;102433.56;5048161;28;20005;-66
2024/01/29 02:06:35;;;;;;;;;;;;;;;2.30;88.23;102430.78;5050313;28;19971;-66
2024/01/29 02:09:01;;;;;;;;;;;;;;;2.24;88.77;102436.53;5023935;28;19925;-66
2024/01/29 02:11:26;;;;;;;;;;;;;;;2.24;89.03;102435.63;5029850;28;20373;-66
2024/01/29 02:13:54;;;;;;;;;;;;;;;2.15;89.06;102441.25;5038357;28;19925;-66
2024/01/29 02:16:19;;;;;;;;;;;;;;;2.22;89.13;102434.69;5018392;28;20051;-66
2024/01/29 02:18:45;;;;;;;;;;;;;;;2.22;88.85;102440.72;5021605;28;19964;-66
2024/01/29 02:21:10;;;;;;;;;;;;;;;2.25;88.73;102432.22;5015437;28;20031;-66
2024/01/29 02:23:38;;;;;;;;;;;;;;;2.21;88.67;102430.31;4998055;28;19925;-66
2024/01/29 02:26:03;;;;;;;;;;;;;;;2.23;89.16;102424.41;5002510;28;20020;-66
2024/01/29 02:28:28;;;;;;;;;;;;;;;2.43;88.47;102435.69;4982800;28;20063;-66
2024/01/29 02:30:54;;;;;;;;;;;;;;;2.30;88.99;102427.28;5027105;28;20088;-66
2024/01/29 02:33:19;;;;;;;;;;;;;;;2.37;88.69;102442.28;5029215;28;19925;-66
2024/01/29 02:35:48;;;;;;;;;;;;;;;2.38;88.51;102434.59;5006160;28;19933;-66
2024/01/29 02:38:13;;;;;;;;;;;;;;;2.42;88.48;102433.91;5009850;28;19921;-66
2024/01/29 02:40:38;;;;;;;;;;;;;;;2.49;88.44;102431.66;5003782;28;19925;-66
2024/01/29 02:43:04;;;;;;;;;;;;;;;2.57;88.22;102431.19;5001011;28;20378;-66
2024/01/29 02:45:29;;;;;;;;;;;;;;;2.66;88.18;102427.22;5002103;28;20020;-66
2024/01/29 02:47:54;;;;;;;;;;;;;;;2.57;88.76;102426.00;4999070;28;20052;-66
2024/01/29 02:50:20;;;;;;;;;;;;;;;2.56;88.91;102428.53;4996256;28;19925;-66
2024/01/29 02:52:46;;;;;;;;;;;;;;;2.59;89.02;102429.53;5001126;28;19937;-66
2024/01/29 02:55:15;;;;;;;;;;;;;;;2.58;88.56;102427.75;4994537;28;19932;-66
2024/01/29 02:57:40;;;;;;;;;;;;;;;2.65;88.92;102422.88;5026105;28;19917;-66
2024/01/29 03:00:06;;;;;;;;;;;;;;;2.69;88.99;102424.81;4996403;28;19979;-66
2024/01/29 03:02:31;;;;;;;;;;;;;;;2.68;88.48;102425.63;4998585;28;19928;-66
2024/01/29 03:04:56;;;;;;;;;;;;;;;2.72;88.78;102423.22;5010550;28;19929;-66
2024/01/29 03:07:21;;;;;;;;;;;;;;;2.72;88.70;102428.41;4993564;28;19926;-66
2024/01/29 03:09:47;;;;;;;;;;;;;;;2.78;88.35;102426.09;5000131;28;19921;-66
2024/01/29 03:12:13;;;;;;;;;;;;;;;2.81;88.38;102424.47;5002388;28;19936;-66
2024/01/29 03:14:38;;;;;;;;;;;;;;;2.74;88.39;102423.28;5031902;28;19921;-66
2024/01/29 03:17:04;;;;;;;;;;;;;;;2.81;88.63;102429.66;5004981;28;19921;-66
2024/01/29 03:19:29;;;;;;;;;;;;;;;2.89;88.58;102428.31;4997968;28;20280;-66
2024/01/29 03:21:54;;;;;;;;;;;;;;;2.86;88.74;102428.13;5030795;28;19928;-66
2024/01/29 03:24:20;;;;;;;;;;;;;;;2.88;88.30;102426.53;5033364;28;19971;-66
2024/01/29 03:26:45;;;;;;;;;;;;;;;2.78;88.62;102414.84;5032659;28;19960;-66
2024/01/29 03:29:10;;;;;;;;;;;;;;;2.81;88.55;102425.34;5036517;28;19928;-66
2024/01/29 03:31:36;;;;;;;;;;;;;;;2.70;89.46;102422.28;5052054;28;20372;-66
2024/01/29 03:34:02;;;;;;;;;;;;;;;2.74;88.74;102425.88;5019463;28;20328;-66
2024/01/29 03:36:27;;;;;;;;;;;;;;;2.68;89.67;102423.91;5023054;28;19922;-66
2024/01/29 03:38:55;;;;;;;;;;;;;;;2.66;89.67;102420.38;5049235;28;19921;-66
2024/01/29 03:41:20;;;;;;;;;;;;;;;2.62;89.94;102433.97;5045628;28;19928;-66
2024/01/29 03:43:45;;;;;;;;;;;;;;;2.65;89.36;102423.75;5027074;28;20284;-66
2024/01/29 03:46:11;;;;;;;;;;;;;;;2.69;89.63;102430.84;5017482;28;20320;-66
2024/01/29 03:48:36;;;;;;;;;;;;;;;2.68;90.07;102439.44;5043693;28;19939;-66
2024/01/29 03:51:01;;;;;;;;;;;;;;;2.60;90.27;102433.91;5047609;28;20375;-66
2024/01/29 03:53:26;;;;;;;;;;;;;;;2.58;89.92;102447.59;5032835;28;19928;-66
2024/01/29 03:55:52;;;;;;;;;;;;;;;2.58;90.33;102434.66;5025332;28;19921;-66
2024/01/29 03:58:20;;;;;;;;;;;;;;;2.54;90.39;102440.50;5032003;28;19927;-66
2024/01/29 04:00:45;;;;;;;;;;;;;;;2.49;89.80;102447.16;5035591;28;19928;-66
2024/01/29 04:03:11;;;;;;;;;;;;;;;2.37;90.44;102437.09;5025353;28;20653;-66
2024/01/29 04:05:37;;;;;;;;;;;;;;;2.24;90.76;102443.38;5031586;28;20384;-66
2024/01/29 04:08:02;;;;;;;;;;;;;;;2.12;90.28;102441.09;5025697;28;19928;-66
2024/01/29 04:10:27;;;;;;;;;;;;;;;1.99;91.05;102442.19;5032625;28;19944;-66
2024/01/29 04:12:53;;;;;;;;;;;;;;;1.92;90.95;102447.88;5034132;28;19951;-66
2024/01/29 04:15:18;;;;;;;;;;;;;;;1.83;90.74;102445.72;5032822;28;19967;-66
2024/01/29 04:17:43;;;;;;;;;;;;;;;1.75;90.99;102448.75;5032377;28;19928;-66
2024/01/29 04:20:09;;;;;;;;;;;;;;;1.70;91.25;102451.09;5040648;28;19944;-66
2024/01/29 04:22:34;;;;;;;;;;;;;;;1.61;91.44;102448.94;5022160;28;20285;-66
2024/01/29 04:25:00;;;;;;;;;;;;;;;1.56;91.88;102452.97;5031442;28;20062;-66
2024/01/29 04:27:25;;;;;;;;;;;;;;;1.53;92.09;102447.66;5047104;28;19917;-66
2024/01/29 04:29:50;;;;;;;;;;;;;;;1.48;92.10;102444.84;5034016;28;19932;-66
2024/01/29 04:32:16;;;;;;;;;;;;;;;1.48;92.00;102457.75;5037948;28;19922;-66
2024/01/29 04:34:41;;;;;;;;;;;;;;;1.50;92.95;102463.88;5040507;28;19921;-66
2024/01/29 04:37:06;;;;;;;;;;;;;;;1.52;92.81;102470.03;5041920;28;19917;-66
2024/01/29 04:39:32;;;;;;;;;;;;;;;1.54;92.81;102458.06;5032272;28;19929;-66
2024/01/29 04:41:57;;;;;;;;;;;;;;;1.58;92.95;102456.53;5001299;28;19967;-66
2024/01/29 04:44:22;;;;;;;;;;;;;;;1.64;92.53;102461.09;5032336;28;20250;-66
2024/01/29 04:46:48;;;;;;;;;;;;;;;1.69;92.01;102452.78;5029653;28;19927;-66
2024/01/29 04:49:13;;;;;;;;;;;;;;;1.69;92.22;102460.53;5028226;28;19927;-66
2024/01/29 04:51:39;;;;;;;;;;;;;;;1.67;91.89;102462.16;5032253;28;19929;-66
2024/01/29 04:54:04;;;;;;;;;;;;;;;1.66;92.31;102459.50;5015232;28;19972;-66
2024/01/29 04:56:30;;;;;;;;;;;;;;;1.66;92.48;102459.50;5047804;28;20011;-66
2024/01/29 04:58:55;;;;;;;;;;;;;;;1.65;92.37;102457.72;5017317;28;19925;-66
2024/01/29 05:01:20;;;;;;;;;;;;;;;1.66;92.16;102472.44;5030335;28;20012;-66
2024/01/29 05:03:47;;;;;;;;;;;;;;;1.69;92.31;102465.69;5029205;28;19948;-66
2024/01/29 05:06:13;;;;;;;;;;;;;;;1.71;92.31;102463.19;5017340;28;19921;-66
2024/01/29 05:08:38;;;;;;;;;;;;;;;1.76;92.30;102459.16;5025955;28;19924;-66
2024/01/29 05:11:04;;;;;;;;;;;;;;;1.79;92.85;102458.44;5032640;28;20007;-66
2024/01/29 05:13:29;;;;;;;;;;;;;;;1.78;92.78;102457.56;5043138;28;19917;-66
2024/01/29 05:15:54;;;;;;;;;;;;;;;1.79;93.40;102458.44;5005337;28;19921;-66
2024/01/29 05:18:20;;;;;;;;;;;;;;;1.71;92.55;102453.75;5028738;28;19979;-66
2024/01/29 05:20:45;;;;;;;;;;;;;;;1.75;93.05;102459.09;5031486;28;19948;-66
2024/01/29 05:23:11;;;;;;;;;;;;;;;1.77;93.14;102458.34;5025450;28;19932;-66
2024/01/29 05:25:36;;;;;;;;;;;;;;;1.83;93.37;102452.59;5013746;28;19918;-66
2024/01/29 05:28:02;;;;;;;;;;;;;;;1.82;93.32;102448.25;5008552;28;20012;-66
2024/01/29 05:30:27;;;;;;;;;;;;;;;1.88;93.69;102451.13;5006063;28;19931;-71
2024/01/29 05:32:52;;;;;;;;;;;;;;;1.90;93.42;102452.97;5013149;28;19921;-71
2024/01/29 05:35:18;;;;;;;;;;;;;;;2.01;93.86;102457.78;5010508;28;20293;-73
2024/01/29 05:37:43;;;;;;;;;;;;;;;1.90;93.97;102450.38;5023948;28;19971;-72
2024/01/29 05:40:11;;;;;;;;;;;;;;;1.95;93.84;102453.19;4995846;28;19925;-72
2024/01/29 05:42:36;;;;;;;;;;;;;;;2.02;93.96;102442.34;5013779;28;19962;-73
2024/01/29 05:45:02;;;;;;;;;;;;;;;2.00;94.05;102446.56;5012169;28;20390;-72
2024/01/29 05:47:27;;;;;;;;;;;;;;;2.05;93.61;102450.28;5030923;28;19913;-72
2024/01/29 05:49:53;;;;;;;;;;;;;;;1.99;94.75;102460.31;5006377;28;19921;-72
2024/01/29 05:52:18;;;;;;;;;;;;;;;2.07;94.42;102466.75;4984039;28;20517;-73
2024/01/29 05:54:44;;;;;;;;;;;;;;;2.06;94.24;102472.72;5005517;28;19921;-73
2024/01/29 05:57:09;;;;;;;;;;;;;;;2.17;94.20;102467.19;5016300;28;19917;-73
2024/01/29 05:59:34;;;;;;;;;;;;;;;2.18;93.85;102484.47;5024709;28;19926;-72
2024/01/29 06:02:01;;;;;;;;;;;;;;;2.25;94.41;102469.31;5000346;28;20024;-73
2024/01/29 06:04:26;;;;;;;;;;;;;;;2.30;94.81;102472.16;5009472;28;19921;-72
2024/01/29 06:06:52;;;;;;;;;;;;;;;2.37;93.94;102471.63;5009286;28;19925;-73
2024/01/29 06:09:17;;;;;;;;;;;;;;;2.40;94.19;102473.50;5003975;28;19971;-73
2024/01/29 06:11:42;;;;;;;;;;;;;;;2.34;94.62;102470.59;5003943;28;19983;-66
2024/01/29 06:14:08;;;;;;;;;;;;;;;2.39;94.92;102482.94;5002959;28;19925;-73
2024/01/29 06:16:33;;;;;;;;;;;;;;;2.41;94.18;102483.00;5001024;28;20285;-66
2024/01/29 06:18:59;;;;;;;;;;;;;;;2.41;95.01;102481.34;5027021;28;19925;-66
2024/01/29 06:21:24;;;;;;;;;;;;;;;2.47;94.79;102482.41;5009825;28;19921;-66
2024/01/29 06:23:50;;;;;;;;;;;;;;;2.45;94.97;102471.13;5027355;28;19925;-66
2024/01/29 06:26:15;;;;;;;;;;;;;;;2.59;94.00;102464.91;5012989;28;19924;-72
2024/01/29 06:28:41;;;;;;;;;;;;;;;2.55;94.01;102470.75;5001453;28;19921;-73
2024/01/29 06:31:06;;;;;;;;;;;;;;;2.51;94.47;102471.41;5004879;28;19928;-73
2024/01/29 06:33:31;;;;;;;;;;;;;;;2.73;94.13;102476.78;5013036;28;20308;-73
2024/01/29 06:35:59;;;;;;;;;;;;;;;2.71;94.25;102468.03;5003396;28;19925;-73
2024/01/29 06:38:25;;;;;;;;;;;;;;;2.80;94.17;102479.66;5022264;28;20331;-73
2024/01/29 06:40:50;;;;;;;;;;;;;;;2.77;94.72;102486.47;5008445;28;20032;-73
2024/01/29 06:43:15;;;;;;;;;;;;;;;2.85;94.72;102485.94;5018163;28;19932;-72
2024/01/29 06:45:40;;;;;;;;;;;;;;;2.78;94.00;102485.63;5023389;28;20381;-73
2024/01/29 06:48:08;;;;;;;;;;;;;;;2.88;93.88;102483.50;5031419;28;19917;-73
2024/01/29 06:50:33;;;;;;;;;;;;;;;2.95;94.39;102482.97;5011713;28;20460;-73
2024/01/29 06:52:59;;;;;;;;;;;;;;;2.93;94.32;102487.16;5023047;28;20012;-73
2024/01/29 06:55:24;;;;;;;;;;;;;;;2.95;94.58;102485.53;5002767;28;19921;-72
2024/01/29 06:57:49;;;;;;;;;;;;;;;3.06;94.03;102489.50;4998941;28;20080;-71
2024/01/29 07:00:15;;;;;;;;;;;;;;;3.03;93.99;102485.88;5004686;28;19925;-71
2024/01/29 07:02:41;;;;;;;;;;;;;;;3.10;93.79;102495.72;5026271;28;20376;-71
2024/01/29 07:05:07;;;;;;;;;;;;;;;3.17;93.49;102491.69;5022131;28;19924;-71
2024/01/29 07:07:32;;;;;;;;;;;;;;;3.23;93.69;102494.56;5028541;28;20015;-71
2024/01/29 07:09:57;;;;;;;;;;;;;;;3.25;93.70;102498.13;4997568;28;20266;-71
2024/01/29 07:12:23;;;;;;;;;;;;;;;3.29;92.79;102500.03;5003955;28;19925;-71
2024/01/29 07:14:49;;;;;;;;;;;;;;;3.21;93.52;102496.22;5026451;28;19952;-71
2024/01/29 07:17:15;;;;;;;;;;;;;;;3.26;93.43;102507.66;5009056;28;19913;-71
2024/01/29 07:19:40;;;;;;;;;;;;;;;3.23;93.87;102516.19;5005290;28;19925;-71
2024/01/29 07:22:08;;;;;;;;;;;;;;;3.24;94.05;102507.59;5030803;28;19932;-66
2024/01/29 07:24:36;;;;;;;;;;;;;;;3.31;93.38;102519.13;5037219;28;20034;-66
2024/01/29 07:27:02;;;;;;;;;;;;;;;3.42;93.77;102520.50;5052318;28;20370;-66
2024/01/29 07:29:29;;;;;;;;;;;;;;;3.45;92.86;102522.34;5053016;28;19951;-66
2024/01/29 07:31:54;;;;;;;;;;;;;;;3.55;92.38;102528.78;5036573;28;19924;-66
2024/01/29 07:34:19;;;;;;;;;;;;;;;3.55;92.57;102531.38;5036404;28;19927;-66
2024/01/29 07:36:45;;;;;;;;;;;;;;;3.62;92.57;102530.84;5052686;28;20334;-66
2024/01/29 07:39:12;;;;;;;;;;;;;;;3.71;92.15;102526.06;5031328;28;20412;-66
2024/01/29 07:41:39;;;;;;;;;;;;;;;3.69;92.56;102530.28;5016960;28;19917;-66
2024/01/29 07:44:04;;;;;;;;;;;;;;;3.81;92.27;102541.19;5016441;28;19917;-66
2024/01/29 07:46:30;;;;;;;;;;;;;;;3.86;92.00;102540.53;5016791;28;20395;-66
2024/01/29 07:48:56;;;;;;;;;;;;;;;3.93;91.48;102545.16;5055156;28;19924;-66
2024/01/29 07:51:21;;;;;;;;;;;;;;;3.93;91.06;102539.97;5027878;28;19925;-66
2024/01/29 07:53:47;;;;;;;;;;;;;;;4.03;90.94;102549.03;5031613;28;19975;-70
2024/01/29 07:56:12;;;;;;;;;;;;;;;4.09;91.13;102552.75;5038149;28;20545;-72
2024/01/29 07:58:37;;;;;;;;;;;;;;;4.11;90.91;102553.72;5019788;28;19917;-72
2024/01/29 08:01:03;;;;;;;;;;;;;;;4.19;91.00;102551.44;5041336;28;19916;-66
2024/01/29 08:03:28;;;;;;;;;;;;;;;4.23;90.73;102553.34;5042875;28;19917;-66
2024/01/29 08:05:53;;;;;;;;;;;;;;;4.27;90.79;102552.66;5036725;28;20309;-66
2024/01/29 08:08:18;;;;;;;;;;;;;;;4.35;90.22;102550.34;5045937;28;20407;-66
2024/01/29 08:10:44;;;;;;;;;;;;;;;4.45;89.86;102547.34;5024207;28;20292;-66
2024/01/29 08:13:09;;;;;;;;;;;;;;;4.45;90.27;102542.16;5028004;28;20388;-66
2024/01/29 08:15:35;;;;;;;;;;;;;;;4.59;89.88;102539.22;5019781;28;19971;-66
2024/01/29 08:18:00;;;;;;;;;;;;;;;4.69;89.43;102538.75;5036683;28;19920;-72
2024/01/29 08:20:26;;;;;;;;;;;;;;;4.77;88.92;102542.56;5039545;28;19916;-66
2024/01/29 08:22:52;;;;;;;;;;;;;;;5.14;87.69;102546.59;5032666;28;20420;-66
2024/01/29 08:25:18;;;;;;;;;;;;;;;5.59;86.55;102557.72;5035624;28;19971;-66
2024/01/29 08:27:43;;;;;;;;;;;;;;;6.12;84.87;102556.19;5036218;28;19928;-66
2024/01/29 08:30:09;;;;;;;;;;;;;;;6.64;82.63;102554.41;5056029;28;19917;-66
2024/01/29 08:32:34;;;;;;;;;;;;;;;7.01;81.38;102563.38;5035624;28;19928;-66
2024/01/29 08:35:00;;;;;;;;;;;;;;;7.17;81.35;102562.13;5026276;28;19923;-66
2024/01/29 08:37:25;;;;;;;;;;;;;;;7.31;81.08;102557.28;5036033;28;20371;-66
2024/01/29 08:39:50;;;;;;;;;;;;;;;7.40;79.67;102562.78;5039068;28;19928;-66
2024/01/29 08:42:16;;;;;;;;;;;;;;;7.43;80.20;102559.41;5037207;28;20396;-66
2024/01/29 08:44:41;;;;;;;;;;;;;;;7.44;80.55;102561.16;5028903;28;19924;-66
2024/01/29 08:47:06;;;;;;;;;;;;;;;7.54;79.53;102571.03;5038425;28;19944;-66
2024/01/29 08:49:32;;;;;;;;;;;;;;;7.63;78.06;102568.66;5047858;28;19928;-66
2024/01/29 08:51:57;;;;;;;;;;;;;;;7.84;77.17;102564.88;5020698;28;20407;-66
2024/01/29 08:54:22;;;;;;;;;;;;;;;7.91;76.96;102558.97;5037933;28;19926;-73
2024/01/29 08:56:48;;;;;;;;;;;;;;;8.01;76.40;102562.72;5053743;28;19928;-72
2024/01/29 08:59:15;;;;;;;;;;;;;;;8.18;75.25;102563.16;5047694;28;19974;-73
2024/01/29 09:01:40;;;;;;;;;;;;;;;8.42;74.42;102557.69;5038909;28;19979;-73
2024/01/29 09:04:06;;;;;;;;;;;;;;;8.74;72.81;102554.13;5035268;28;20368;-73
2024/01/29 09:06:31;;;;;;;;;;;;;;;9.06;71.71;102562.66;5023873;28;20369;-71
2024/01/29 09:08:56;;;;;;;;;;;;;;;9.25;71.28;102558.75;5031245;28;19924;-73
2024/01/29 09:11:22;;;;;;;;;;;;;;;9.31;70.59;102558.88;5029365;28;19943;-73
2024/01/29 09:13:47;;;;;;;;;;;;;;;9.26;70.76;102560.47;5054575;28;19924;-66
2024/01/29 09:16:13;;;;;;;;;;;;;;;9.18;70.80;102554.22;5055179;28;19916;-66
2024/01/29 09:18:38;;;;;;;;;;;;;;;9.10;70.66;102559.28;5054530;28;19916;-67
2024/01/29 09:21:03;;;;;;;;;;;;;;;8.74;71.38;102548.88;5034014;28;19920;-66
2024/01/29 09:23:29;;;;;;;;;;;;;;;8.32;74.08;102550.47;5011240;28;19929;-66
2024/01/29 09:25:54;;;;;;;;;;;;;;;8.16;74.30;102554.41;5012768;28;20068;-67
2024/01/29 09:28:20;;;;;;;;;;;;;;;7.80;75.62;102552.56;5008993;28;20293;-66
2024/01/29 09:30:45;;;;;;;;;;;;;;;7.56;76.99;102545.84;5018469;28;20032;-67
2024/01/29 09:33:10;;;;;;;;;;;;;;;7.58;76.59;102553.72;5008632;28;19925;-67
2024/01/29 09:35:39;;;;;;;;;;;;;;;7.38;77.42;102555.75;5013916;28;19921;-66
2024/01/29 09:38:04;;;;;;;;;;;;;;;7.37;78.15;102556.59;4999955;28;19975;-67
2024/01/29 09:40:29;;;;;;;;;;;;;;;7.46;78.20;102554.28;5003701;28;20285;-67
2024/01/29 09:42:57;;;;;;;;;;;;;;;7.60;78.64;102563.38;5013581;28;20443;-66
2024/01/29 09:45:25;;;;;;;;;;;;;;;7.83;78.79;102560.53;5014635;28;20022;-72
2024/01/29 09:47:51;;;;;;;;;;;;;;;8.45;77.29;102567.38;5011641;28;19928;-71
2024/01/29 09:50:17;;;;;;;;;;;;;;;9.25;74.33;102565.69;5022940;28;19924;-72
2024/01/29 09:52:43;;;;;;;;;;;;;;;10.05;72.48;102572.50;5009454;28;19925;-73
2024/01/29 09:55:10;;;;;;;;;;;;;;;10.77;69.12;102578.09;5026364;28;19928;-73
2024/01/29 09:57:35;;;;;;;;;;;;;;;11.44;67.38;102572.91;5004223;28;19922;-73
2024/01/29 10:00:02;;;;;;;;;;;;;;;12.50;65.61;102576.63;5008548;28;19926;-73
2024/01/29 10:02:29;;;;;;;;;;;;;;;13.24;63.22;102579.75;5026983;28;19920;-74
2024/01/29 10:04:54;;;;;;;;;;;;;;;13.88;63.06;102578.22;5024575;28;19921;-74
2024/01/29 10:07:19;;;;;;;;;;;;;;;14.13;59.75;102580.03;4998740;28;20341;-75
2024/01/29 10:09:45;;;;;;;;;;;;;;;14.47;60.28;102579.19;4998082;28;19940;-75
2024/01/29 10:12:23;;;;;;;;;;;;;;;14.59;58.95;102586.22;5006047;28;20401;-75
2024/01/29 10:14:48;;;;;;;;;;;;;;;15.04;58.71;102582.66;5026473;28;19917;-75
2024/01/29 10:17:14;;;;;;;;;;;;;;;15.29;56.84;102582.56;5014035;28;19986;-75
2024/01/29 10:19:39;;;;;;;;;;;;;;;16.00;56.50;102587.50;5012948;28;19921;-76
2024/01/29 10:22:12;;;;;;;;;;;;;;;16.63;55.60;102587.00;5009985;28;20325;-75
2024/01/29 10:24:37;;;;;;;;;;;;;;;16.91;56.54;102585.91;5034713;28;19920;-75
2024/01/29 10:27:06;;;;;;;;;;;;;;;17.67;50.49;102600.03;5025484;28;19928;-75
2024/01/29 10:29:32;;;;;;;;;;;;;;;18.48;50.31;102602.34;5036997;28;19923;-76
2024/01/29 10:31:59;;;;;;;;;;;;;;;19.15;49.74;102595.88;5036660;28;19921;-75
2024/01/29 10:34:24;;;;;;;;;;;;;;;19.45;48.81;102596.16;5037179;28;19978;-75
2024/01/29 10:36:50;;;;;;;;;;;;;;;19.39;47.32;102595.38;5040405;28;19952;-77
2024/01/29 10:39:18;;;;;;;;;;;;;;;18.80;48.35;102595.59;5031041;28;19931;-75
2024/01/29 10:41:44;;;;;;;;;;;;;;;18.82;50.04;102598.22;5053368;28;19935;-75
2024/01/29 10:44:13;;;;;;;;;;;;;;;19.16;51.42;102589.66;5053564;28;19919;-77
2024/01/29 10:46:39;;;;;;;;;;;;;;;19.94;49.52;102595.09;5052750;28;20002;-77
2024/01/29 10:49:05;;;;;;;;;;;;;;;20.21;43.98;102593.56;5052024;28;19986;-77
2024/01/29 10:51:34;;;;;;;;;;;;;;;20.29;45.68;102600.50;5037315;28;19924;-67
2024/01/29 10:54:00;;;;;;;;;;;;;;;20.13;48.32;102605.28;5050446;28;19943;-76
2024/01/29 10:56:26;;;;;;;;;;;;;;;20.28;48.54;102604.94;5023638;28;19970;-76
2024/01/29 10:58:57;;;;;;;;;;;;;;;21.25;48.16;102601.53;5033391;28;19932;-67
2024/01/29 11:01:23;;;;;;;;;;;;;;;22.03;49.46;102603.63;5049403;28;19943;-67
2024/01/29 11:03:49;;;;;;;;;;;;;;;22.86;45.12;102608.00;5046345;28;19927;-67
2024/01/29 11:06:24;;;;;;;;;;;;;;;23.38;46.21;102602.56;5026013;28;19920;-67
2024/01/29 11:08:53;;;;;;;;;;;;;;;23.45;46.10;102604.06;5047034;28;20366;-67
2024/01/29 11:11:19;;;;;;;;;;;;;;;23.23;39.38;102600.44;5039525;28;20836;-67
2024/01/29 11:13:44;;;;;;;;;;;;;;;23.21;46.50;102595.16;5051085;28;20004;-67
2024/01/29 11:16:10;;;;;;;;;;;;;;;23.83;39.19;102607.06;5047835;28;19920;-67
2024/01/29 11:18:36;;;;;;;;;;;;;;;24.29;44.69;102601.63;5033151;28;20467;-67
2024/01/29 11:21:01;;;;;;;;;;;;;;;24.74;44.68;102597.09;5046945;28;19928;-67
2024/01/29 11:23:28;;;;;;;;;;;;;;;25.04;45.54;102593.97;5014734;28;19929;-67
2024/01/29 11:25:54;;;;;;;;;;;;;;;24.94;46.29;102587.28;5008847;28;19928;-67
2024/01/29 11:28:19;;;;;;;;;;;;;;;25.40;37.69;102588.75;4999743;28;20012;-68
2024/01/29 11:30:52;;;;;;;;;;;;;;;24.70;37.67;102585.63;5015659;28;19918;-68
2024/01/29 11:33:18;;;;;;;;;;;;;;;23.33;38.67;102583.13;5028401;28;19917;-67
2024/01/29 11:35:45;;;;;;;;;;;;;;;22.93;45.90;102584.56;4985701;28;19975;-67
2024/01/29 11:38:13;;;;;;;;;;;;;;;22.55;43.46;102593.03;5015683;28;19951;-67
2024/01/29 11:40:42;;;;;;;;;;;;;;;22.06;45.92;102590.16;5031988;28;20012;-68
2024/01/29 11:43:11;;;;;;;;;;;;;;;20.93;45.40;102576.63;5033172;28;20404;-67
2024/01/29 11:45:37;;;;;;;;;;;;;;;20.28;49.15;102578.31;5033134;28;19917;-67
2024/01/29 11:48:02;;;;;;;;;;;;;;;19.66;46.24;102578.84;5033398;28;19936;-67
2024/01/29 11:50:28;;;;;;;;;;;;;;;19.73;49.91;102575.16;5015340;28;19943;-67
2024/01/29 11:52:53;;;;;;;;;;;;;;;19.42;48.52;102574.94;5005634;28;20041;-75
2024/01/29 11:55:20;;;;;;;;;;;;;;;19.28;46.95;102567.25;5011665;28;19926;-76
2024/01/29 11:57:45;;;;;;;;;;;;;;;19.60;46.70;102571.03;5016190;28;19925;-76
2024/01/29 12:00:18;;;;;;;;;;;;;;;19.95;44.11;102567.56;5012589;28;19922;-76
2024/01/29 12:02:48;;;;;;;;;;;;;;;20.25;46.40;102567.75;5013673;28;19925;-77
2024/01/29 12:05:14;;;;;;;;;;;;;;;20.48;45.01;102563.63;5046814;28;20336;-76
2024/01/29 12:07:42;;;;;;;;;;;;;;;20.32;48.41;102572.00;5014036;28;19917;-76
2024/01/29 12:10:08;;;;;;;;;;;;;;;19.74;44.93;102560.94;4994383;28;19929;-76
2024/01/29 12:12:33;;;;;;;;;;;;;;;19.60;47.88;102563.91;5018300;28;19921;-67
2024/01/29 12:15:01;;;;;;;;;;;;;;;19.45;49.44;102556.28;5031972;28;20396;-76
2024/01/29 12:17:27;;;;;;;;;;;;;;;18.99;48.86;102560.75;5016571;28;19917;-76
2024/01/29 12:19:55;;;;;;;;;;;;;;;18.64;49.03;102565.78;5032769;28;20369;-77
2024/01/29 12:22:20;;;;;;;;;;;;;;;18.42;46.29;102564.41;5025818;28;19976;-67
2024/01/29 12:24:46;;;;;;;;;;;;;;;17.43;48.87;102560.59;5015237;28;19968;-67
2024/01/29 12:27:11;;;;;;;;;;;;;;;16.67;50.72;102552.59;5002283;28;19995;-67
2024/01/29 12:29:38;;;;;;;;;;;;;;;16.54;51.92;102554.50;5024231;28;19913;-67
2024/01/29 12:32:11;;;;;;;;;;;;;;;15.90;52.46;102560.28;5012262;28;19979;-67
2024/01/29 12:34:46;;;;;;;;;;;;;;;15.50;54.31;102555.19;5016716;28;20305;-75
2024/01/29 12:37:18;;;;;;;;;;;;;;;15.49;54.16;102553.44;5011595;28;20352;-74